createdAt,value
2024-02-13T00:04:26.598Z,100.00
2024-02-13T00:09:29.561Z,100.00
2024-02-13T00:14:32.495Z,100.00
2024-02-13T00:19:35.996Z,100.00
2024-02-13T00:24:40.195Z,100.00
2024-02-13T00:29:46.003Z,100.00
2024-02-13T00:34:51.303Z,100.00
2024-02-13T00:39:56.339Z,100.00
2024-02-13T00:45:04.690Z,100.00
2024-02-13T00:50:09.973Z,100.00
2024-02-13T00:55:13.248Z,100.00
2024-02-13T01:00:16.439Z,100.00
2024-02-13T01:05:20.319Z,100.00
2024-02-13T01:10:23.214Z,100.00
2024-02-13T01:15:28.266Z,100.00
2024-02-13T01:20:31.584Z,100.00
2024-02-13T01:25:36.448Z,100.00
2024-02-13T01:30:39.473Z,100.00
2024-02-13T01:35:44.154Z,100.00
2024-02-13T01:40:47.843Z,100.00
2024-02-13T01:45:50.773Z,100.00
2024-02-13T01:50:57.448Z,100.00
2024-02-13T01:56:04.024Z,100.00
2024-02-13T02:01:07.959Z,100.00
2024-02-13T02:06:11.205Z,100.00
2024-02-13T02:11:15.755Z,100.00
2024-02-13T02:16:18.840Z,100.00
2024-02-13T02:21:21.934Z,100.00
2024-02-13T02:26:26.446Z,100.00
2024-02-13T02:31:29.416Z,100.00
2024-02-13T02:36:33.521Z,100.00
2024-02-13T02:41:36.972Z,100.00
2024-02-13T02:46:40.804Z,100.00
2024-02-13T02:51:45.073Z,100.00
2024-02-13T02:56:48.062Z,100.00
2024-02-13T03:01:50.991Z,100.00
2024-02-13T03:06:56.039Z,100.00
2024-02-13T03:11:58.946Z,100.00
2024-02-13T03:17:02.042Z,100.00
2024-02-13T03:22:04.876Z,100.00
2024-02-13T03:27:07.723Z,100.00
2024-02-13T03:32:10.741Z,100.00
2024-02-13T03:37:15.093Z,100.00
2024-02-13T03:42:18.022Z,100.00
2024-02-13T03:47:21.067Z,100.00
2024-02-13T03:52:23.953Z,100.00
2024-02-13T03:57:26.914Z,100.00
2024-02-13T04:02:31.634Z,100.00
2024-02-13T04:07:36.819Z,100.00
2024-02-13T04:12:39.829Z,100.00
2024-02-13T04:17:43.314Z,100.00
2024-02-13T04:22:46.421Z,100.00
2024-02-13T04:27:49.297Z,100.00
2024-02-13T04:32:52.369Z,100.00
2024-02-13T04:37:55.537Z,100.00
2024-02-13T04:42:58.417Z,100.00
2024-02-13T04:48:01.653Z,100.00
2024-02-13T04:53:05.140Z,100.00
2024-02-13T04:58:09.380Z,100.00
2024-02-13T05:03:18.758Z,100.00
2024-02-13T05:08:23.006Z,100.00
2024-02-13T05:13:26.184Z,100.00
2024-02-13T05:18:29.364Z,100.00
2024-02-13T05:23:32.343Z,100.00
2024-02-13T05:28:38.758Z,100.00
2024-02-13T05:33:41.849Z,100.00
2024-02-13T05:38:45.797Z,100.00
2024-02-13T05:43:48.959Z,100.00
2024-02-13T05:48:55.634Z,100.00
2024-02-13T05:54:00.121Z,100.00
2024-02-13T05:59:04.463Z,100.00
2024-02-13T06:04:09.983Z,100.00
2024-02-13T06:09:14.273Z,100.00
2024-02-13T06:14:17.530Z,100.00
2024-02-13T06:19:20.771Z,100.00
2024-02-13T06:24:25.099Z,100.00
2024-02-13T06:29:28.095Z,100.00
2024-02-13T06:34:31.083Z,100.00
2024-02-13T06:39:34.135Z,100.00
2024-02-13T06:44:38.237Z,100.00
2024-02-13T06:49:43.225Z,100.00
2024-02-13T06:54:50.383Z,100.00
2024-02-13T06:59:55.533Z,100.00
2024-02-13T07:04:58.440Z,100.00
2024-02-13T07:10:02.512Z,100.00
2024-02-13T07:15:07.771Z,100.00
2024-02-13T07:20:14.437Z,100.00
2024-02-13T07:25:17.429Z,100.00
2024-02-13T07:30:20.504Z,100.00
2024-02-13T07:35:24.197Z,100.00
2024-02-13T07:40:27.640Z,100.00
2024-02-13T07:45:30.566Z,100.00
2024-02-13T07:50:36.800Z,100.00
2024-02-13T07:55:39.951Z,100.00
2024-02-13T08:00:44.510Z,100.00
2024-02-13T08:05:47.606Z,100.00
2024-02-13T08:10:52.572Z,100.00
2024-02-13T08:15:56.194Z,100.00
2024-02-13T08:21:00.315Z,100.00
2024-02-13T08:26:03.690Z,100.00
2024-02-13T08:31:08.078Z,100.00
2024-02-13T08:36:12.975Z,100.00
2024-02-13T08:41:17.550Z,100.00
2024-02-13T08:46:23.797Z,100.00
2024-02-13T08:51:28.401Z,100.00
2024-02-13T08:56:31.816Z,100.00
2024-02-13T09:01:35.623Z,100.00
2024-02-13T09:06:39.291Z,100.00
2024-02-13T09:11:44.052Z,100.00
2024-02-13T09:16:47.246Z,100.00
2024-02-13T09:21:51.761Z,100.00
2024-02-13T09:26:55.244Z,100.00
2024-02-13T09:31:58.908Z,99.63
2024-02-13T09:37:02.063Z,99.46
2024-02-13T09:42:05.575Z,96.84
2024-02-13T09:47:10.583Z,94.59
2024-02-13T09:52:20.327Z,88.58
2024-02-13T09:57:24.039Z,87.84
2024-02-13T10:08:22.591Z,90.32
2024-02-13T10:13:47.080Z,88.34
2024-02-13T10:19:05.217Z,88.42
2024-02-13T10:24:46.307Z,87.49
2024-02-13T10:30:00.186Z,87.52
2024-02-13T10:41:02.669Z,87.73
2024-02-13T10:47:39.842Z,86.42
2024-02-13T10:52:59.402Z,87.42
2024-02-13T10:58:17.094Z,86.43
2024-02-13T11:03:25.915Z,87.46
2024-02-13T11:08:30.183Z,89.16
2024-02-13T11:13:35.481Z,88.46
2024-02-13T11:19:05.117Z,87.59
2024-02-13T11:24:10.613Z,86.38
2024-02-13T11:29:18.666Z,86.08
2024-02-13T11:34:23.745Z,87.48
2024-02-13T11:39:26.924Z,86.41
2024-02-13T11:44:32.022Z,85.00
2024-02-13T11:49:36.952Z,82.77
2024-02-13T11:54:46.238Z,83.28
2024-02-13T12:00:13.879Z,84.55
2024-02-13T12:05:17.870Z,82.03
2024-02-13T12:10:26.304Z,80.90
2024-02-13T12:15:30.513Z,79.17
2024-02-13T12:20:34.590Z,78.25
2024-02-13T12:25:37.720Z,75.70
2024-02-13T12:30:47.619Z,75.82
2024-02-13T12:36:07.135Z,77.77
2024-02-13T12:41:10.310Z,77.93
2024-02-13T12:46:14.425Z,77.36
2024-02-13T12:51:19.214Z,77.46
2024-02-13T12:56:26.761Z,79.72
2024-02-13T13:01:32.617Z,79.63
2024-02-13T13:06:38.233Z,79.96
2024-02-13T13:11:43.377Z,81.27
2024-02-13T13:16:46.833Z,81.06
2024-02-13T13:21:51.593Z,79.17
2024-02-13T13:26:55.240Z,80.47
2024-02-13T13:31:58.496Z,80.20
2024-02-13T13:37:01.718Z,81.95
2024-02-13T13:42:11.214Z,82.11
2024-02-13T13:47:14.294Z,83.87
2024-02-13T13:52:20.404Z,83.30
2024-02-13T13:57:24.165Z,83.32
2024-02-13T14:02:29.199Z,84.23
2024-02-13T14:07:34.931Z,84.22
2024-02-13T14:12:38.343Z,84.32
2024-02-13T14:17:43.701Z,84.43
2024-02-13T14:22:49.670Z,83.65
2024-02-13T14:27:55.954Z,84.83
2024-02-13T14:33:00.687Z,86.26
2024-02-13T14:38:04.940Z,87.15
2024-02-13T14:43:08.801Z,88.34
2024-02-13T14:48:14.901Z,88.79
2024-02-13T14:53:22.555Z,89.68
2024-02-13T14:58:34.366Z,89.96
2024-02-13T15:03:46.484Z,90.69
2024-02-13T15:08:53.153Z,90.95
2024-02-13T15:13:57.539Z,91.60
2024-02-13T15:19:04.075Z,91.89
2024-02-13T15:24:08.238Z,92.36
2024-02-13T15:29:14.787Z,92.87
2024-02-13T15:34:18.680Z,92.45
2024-02-13T15:39:40.441Z,91.19
2024-02-13T15:45:02.620Z,91.73
2024-02-13T15:50:12.638Z,91.15
2024-02-13T15:55:19.936Z,90.99
2024-02-13T16:00:28.578Z,90.89
2024-02-13T16:05:33.443Z,90.78
2024-02-13T16:10:36.524Z,90.59
2024-02-13T16:15:39.530Z,91.06
2024-02-13T16:20:42.751Z,90.95
2024-02-13T16:25:45.681Z,91.23
2024-02-13T16:30:48.833Z,91.20
2024-02-13T16:35:51.864Z,91.34
2024-02-13T16:40:54.852Z,91.66
2024-02-13T16:45:57.832Z,91.89
2024-02-13T16:51:00.792Z,92.02
2024-02-13T16:56:04.559Z,92.13
2024-02-13T17:01:07.693Z,92.24
2024-02-13T17:06:10.860Z,92.09
2024-02-13T17:11:15.034Z,92.21
2024-02-13T17:16:18.253Z,92.40
2024-02-13T17:21:21.648Z,92.58
2024-02-13T17:26:24.828Z,92.85
2024-02-13T17:31:28.584Z,92.88
2024-02-13T17:36:32.752Z,92.65
2024-02-13T17:41:35.602Z,92.80
2024-02-13T17:46:39.124Z,92.98
2024-02-13T17:51:44.298Z,93.18
2024-02-13T17:56:48.911Z,93.34
2024-02-13T18:01:53.709Z,93.65
2024-02-13T18:06:57.239Z,94.12
2024-02-13T18:12:06.760Z,94.04
2024-02-13T18:17:11.626Z,94.17
2024-02-13T18:22:14.601Z,94.47
2024-02-13T18:27:17.708Z,94.81
2024-02-13T18:32:21.484Z,95.01
2024-02-13T18:37:29.163Z,95.16
2024-02-13T18:42:33.688Z,95.45
2024-02-13T18:47:37.259Z,95.48
2024-02-13T18:52:42.911Z,95.66
2024-02-13T18:57:49.150Z,95.51
2024-02-13T19:02:53.802Z,95.74
2024-02-13T19:07:57.986Z,95.94
2024-02-13T19:13:02.274Z,96.01
2024-02-13T19:18:05.726Z,96.24
2024-02-13T19:23:10.379Z,96.14
2024-02-13T19:28:14.424Z,96.32
2024-02-13T19:33:18.128Z,96.61
2024-02-13T19:38:21.586Z,96.65
2024-02-13T19:43:24.625Z,96.81
2024-02-13T19:48:27.926Z,97.00
2024-02-13T19:53:31.456Z,97.08
2024-02-13T19:58:35.669Z,97.32
2024-02-13T20:03:40.323Z,97.37
2024-02-13T20:08:43.426Z,97.84
2024-02-13T20:13:47.654Z,97.88
2024-02-13T20:18:51.043Z,97.63
2024-02-13T20:23:55.117Z,97.75
2024-02-13T20:28:58.104Z,97.88
2024-02-13T20:34:01.270Z,98.00
2024-02-13T20:39:11.565Z,97.69
2024-02-13T20:44:15.768Z,97.55
2024-02-13T20:49:19.480Z,97.56
2024-02-13T20:54:23.427Z,97.95
2024-02-13T20:59:30.928Z,97.93
2024-02-13T21:04:34.053Z,98.19
2024-02-13T21:09:38.247Z,98.81
2024-02-13T21:14:42.058Z,99.09
2024-02-13T21:19:44.997Z,99.56
2024-02-13T21:24:51.403Z,99.50
2024-02-13T21:29:54.361Z,99.92
2024-02-13T21:34:57.788Z,100.00
2024-02-13T21:40:00.867Z,100.00
2024-02-13T21:45:09.294Z,100.00
2024-02-13T21:50:14.508Z,100.00
2024-02-13T21:55:17.374Z,100.00
2024-02-13T22:00:20.598Z,100.00
2024-02-13T22:05:23.694Z,100.00
2024-02-13T22:10:26.814Z,100.00
2024-02-13T22:15:30.666Z,100.00
2024-02-13T22:20:38.372Z,100.00
2024-02-13T22:25:45.132Z,100.00
2024-02-13T22:30:48.054Z,100.00
2024-02-13T22:35:50.933Z,100.00
2024-02-13T22:40:54.113Z,100.00
2024-02-13T22:45:57.979Z,100.00
2024-02-13T22:51:00.925Z,100.00
2024-02-13T22:56:05.604Z,100.00
2024-02-13T23:01:08.665Z,100.00
2024-02-13T23:06:12.116Z,100.00
2024-02-13T23:11:15.500Z,100.00
2024-02-13T23:16:18.424Z,100.00
2024-02-13T23:21:21.477Z,100.00
2024-02-13T23:26:24.525Z,100.00
2024-02-13T23:31:27.524Z,100.00
2024-02-13T23:36:30.466Z,100.00
2024-02-13T23:41:33.953Z,100.00
2024-02-13T23:46:37.102Z,100.00
2024-02-13T23:51:40.981Z,100.00
2024-02-13T23:56:44.337Z,100.00
